Monroe, New Hampshire
Current Conditions -  °F | °C
As of 7:55 PM on Saturday 22 Nov 2014 (Local Time) from KCDA Reporting Station
Overcast Overcast  
Wind Chill: 26°   Ceiling: 3000
Heat Index: 33°   Visibility: 10mi
Dew Point: 13°   Wind: 8mph
Humidity: 43%   Direction: 130°SE
Pressure: 29.94"   Gusts: NA
Location:  44.26°N, 72.06°W
Report Text: KCDA 230055Z AUTO 13007KT 10SM OVC030 01/M11 A2994 RMK AO2 T00051107
Loading
Personal Weather Stations






























Interactive Weather Map New forecast layout! Learn more

10-Day Weather Forecast

Advertisements
Track Severe Weather on mobile